createdAt,value
2018-04-18T00:03:01.743Z,60.74
2018-04-18T00:08:02.709Z,60.27
2018-04-18T00:13:03.677Z,60.89
2018-04-18T00:18:04.656Z,60.35
2018-04-18T00:23:05.665Z,60.67
2018-04-18T00:28:06.607Z,60.77
2018-04-18T00:33:07.545Z,60.98
2018-04-18T00:38:08.497Z,60.87
2018-04-18T00:43:09.431Z,61.38
2018-04-18T00:48:10.413Z,61.43
2018-04-18T00:53:11.372Z,61.31
2018-04-18T00:58:12.343Z,61.28
2018-04-18T01:03:13.305Z,61.57
2018-04-18T01:08:14.263Z,61.19
2018-04-18T01:13:15.213Z,60.58
2018-04-18T01:18:16.197Z,60.65
2018-04-18T01:23:17.189Z,60.93
2018-04-18T01:28:18.136Z,61.20
2018-04-18T01:33:19.097Z,60.97
2018-04-18T01:38:20.070Z,62.34
2018-04-18T01:43:21.015Z,62.23
2018-04-18T01:48:21.958Z,62.35
2018-04-18T01:53:22.916Z,62.32
2018-04-18T01:58:23.884Z,62.97
2018-04-18T02:03:24.832Z,61.57
2018-04-18T02:08:25.796Z,61.32
2018-04-18T02:13:26.742Z,60.35
2018-04-18T02:18:27.684Z,60.28
2018-04-18T02:23:28.655Z,60.16
2018-04-18T02:28:29.610Z,60.39
2018-04-18T02:33:30.567Z,61.22
2018-04-18T02:38:31.536Z,63.36
2018-04-18T02:43:32.488Z,63.62
2018-04-18T02:48:33.443Z,63.60
2018-04-18T02:53:34.406Z,63.78
2018-04-18T02:58:35.384Z,63.86
2018-04-18T03:03:36.375Z,64.28
2018-04-18T03:08:37.336Z,65.03
2018-04-18T03:13:38.301Z,65.66
2018-04-18T03:18:39.267Z,65.51
2018-04-18T03:23:40.227Z,64.86
2018-04-18T03:28:41.176Z,64.74
2018-04-18T03:33:42.971Z,65.07
2018-04-18T03:38:43.909Z,65.64
2018-04-18T03:43:44.881Z,66.21
2018-04-18T03:48:45.824Z,66.66
2018-04-18T03:53:46.764Z,66.39
2018-04-18T03:58:47.748Z,66.43
2018-04-18T04:03:48.674Z,66.79
2018-04-18T04:08:49.634Z,67.48
2018-04-18T04:13:50.583Z,67.14
2018-04-18T04:19:03.897Z,67.76
2018-04-18T04:24:17.260Z,68.03
2018-04-18T04:29:18.196Z,67.72
2018-04-18T04:34:19.151Z,67.95
2018-04-18T04:39:20.090Z,67.72
2018-04-18T04:44:21.036Z,67.74
2018-04-18T04:49:22.004Z,67.82
2018-04-18T04:54:22.988Z,68.72
2018-04-18T04:59:24.006Z,67.38
2018-04-18T05:04:24.928Z,66.88
2018-04-18T05:09:25.909Z,66.72
2018-04-18T05:14:26.864Z,67.07
2018-04-18T05:19:27.820Z,66.30
2018-04-18T05:24:28.806Z,66.21
2018-04-18T05:29:29.745Z,65.89
2018-04-18T05:34:30.700Z,65.59
2018-04-18T05:39:31.662Z,65.88
2018-04-18T05:44:32.626Z,65.66
2018-04-18T05:49:33.584Z,65.76
2018-04-18T05:54:34.569Z,66.09
2018-04-18T05:59:35.556Z,65.31
2018-04-18T06:04:36.510Z,64.97
2018-04-18T06:09:37.462Z,64.54
2018-04-18T06:14:38.423Z,64.89
2018-04-18T06:19:39.416Z,64.64
2018-04-18T06:24:40.389Z,64.20
2018-04-18T06:29:41.345Z,63.88
2018-04-18T06:34:42.304Z,63.35
2018-04-18T06:39:43.263Z,63.08
2018-04-18T06:44:44.207Z,62.98
2018-04-18T06:49:45.151Z,62.62
2018-04-18T06:54:46.110Z,62.84
2018-04-18T06:59:47.087Z,62.05
2018-04-18T07:04:48.068Z,62.96
2018-04-18T07:09:49.049Z,61.69
2018-04-18T07:14:50.012Z,60.42
2018-04-18T07:19:50.969Z,59.97
2018-04-18T07:24:51.934Z,59.65
2018-04-18T07:29:52.924Z,58.34
2018-04-18T07:34:53.911Z,57.83
2018-04-18T07:39:54.881Z,57.41
2018-04-18T07:44:55.830Z,57.13
2018-04-18T07:49:56.792Z,56.77
2018-04-18T07:54:57.784Z,57.39
2018-04-18T07:59:58.791Z,56.00
2018-04-18T08:04:59.746Z,55.63
2018-04-18T08:10:00.700Z,55.58
2018-04-18T08:15:01.647Z,53.93
2018-04-18T08:20:02.674Z,53.02
2018-04-18T08:25:03.655Z,52.67
2018-04-18T08:30:04.624Z,52.49
2018-04-18T08:35:05.653Z,52.34
2018-04-18T08:40:06.625Z,52.67
2018-04-18T08:45:07.603Z,52.33
2018-04-18T08:50:08.589Z,53.72
2018-04-18T08:55:09.535Z,52.58
2018-04-18T09:00:10.525Z,51.65
2018-04-18T09:05:11.477Z,51.36
2018-04-18T09:10:12.403Z,51.63
2018-04-18T09:15:13.374Z,52.00
2018-04-18T09:20:14.349Z,51.04
2018-04-18T09:25:15.332Z,51.09
2018-04-18T09:30:16.318Z,51.05
2018-04-18T09:35:17.268Z,50.67
2018-04-18T09:40:18.253Z,51.37
2018-04-18T09:45:19.200Z,50.78
2018-04-18T09:50:20.173Z,51.90
2018-04-18T09:55:21.135Z,51.04
2018-04-18T10:00:28.336Z,51.39
2018-04-18T10:05:29.292Z,51.21
2018-04-18T10:10:30.244Z,51.00
2018-04-18T10:15:31.188Z,50.50
2018-04-18T10:20:32.136Z,50.48
2018-04-18T10:25:33.137Z,51.05
2018-04-18T10:30:34.100Z,51.20
2018-04-18T10:35:35.077Z,50.53
2018-04-18T10:40:36.027Z,50.77
2018-04-18T10:45:36.986Z,49.96
2018-04-18T10:50:37.918Z,50.31
2018-04-18T10:55:38.864Z,49.92
2018-04-18T11:00:39.896Z,49.66
2018-04-18T11:05:40.853Z,48.82
2018-04-18T11:10:41.971Z,48.22
2018-04-18T11:15:42.945Z,48.58
2018-04-18T11:20:43.886Z,47.89
2018-04-18T11:25:44.867Z,47.33
2018-04-18T11:30:46.076Z,47.26
2018-04-18T11:35:47.036Z,47.95
2018-04-18T11:40:47.983Z,47.38
2018-04-18T11:45:48.945Z,47.44
2018-04-18T11:50:49.903Z,48.87
2018-04-18T11:55:50.857Z,46.55
2018-04-18T12:00:51.846Z,46.74
2018-04-18T12:05:52.817Z,47.16
2018-04-18T12:10:53.814Z,46.32
2018-04-18T12:15:54.768Z,45.92
2018-04-18T12:20:55.773Z,44.23
2018-04-18T12:25:56.755Z,43.72
2018-04-18T12:30:57.701Z,43.62
2018-04-18T12:35:58.672Z,44.41
2018-04-18T12:40:59.660Z,44.27
2018-04-18T12:46:00.664Z,42.48
2018-04-18T12:51:01.635Z,42.77
2018-04-18T12:56:02.618Z,42.49
2018-04-18T13:01:03.632Z,42.49
2018-04-18T13:06:04.579Z,41.22
2018-04-18T13:11:05.551Z,41.40
2018-04-18T13:16:06.517Z,42.28
2018-04-18T13:21:07.490Z,42.10
2018-04-18T13:26:08.471Z,40.29
2018-04-18T13:31:09.493Z,40.29
2018-04-18T13:36:10.468Z,38.79
2018-04-18T13:41:11.443Z,41.84
2018-04-18T13:46:12.439Z,41.15
2018-04-18T13:51:13.418Z,40.21
2018-04-18T13:56:14.417Z,40.49
2018-04-18T14:01:15.453Z,38.88
2018-04-18T14:06:16.428Z,39.44
2018-04-18T14:11:17.385Z,37.13
2018-04-18T14:16:18.389Z,37.25
2018-04-18T14:21:19.365Z,39.13
2018-04-18T14:26:20.343Z,37.73
2018-04-18T14:31:21.352Z,37.55
2018-04-18T14:36:22.345Z,37.02
2018-04-18T14:41:23.309Z,37.08
2018-04-18T14:46:24.288Z,37.81
2018-04-18T14:51:25.265Z,35.03
2018-04-18T14:56:26.247Z,35.78
2018-04-18T15:01:27.272Z,35.04
2018-04-18T15:06:28.221Z,36.30
2018-04-18T15:11:29.177Z,35.74
2018-04-18T15:16:30.151Z,37.16
2018-04-18T15:21:31.103Z,36.09
2018-04-18T15:26:32.079Z,36.59
2018-04-18T15:31:33.043Z,37.28
2018-04-18T15:36:33.991Z,37.25
2018-04-18T15:41:34.967Z,37.15
2018-04-18T15:46:35.926Z,37.15
2018-04-18T15:51:36.902Z,37.23
2018-04-18T15:56:37.893Z,37.22
2018-04-18T16:01:38.936Z,38.29
2018-04-18T16:06:39.935Z,37.97
2018-04-18T16:11:40.931Z,37.90
2018-04-18T16:16:41.904Z,38.24
2018-04-18T16:21:42.901Z,38.55
2018-04-18T16:26:43.903Z,38.14
2018-04-18T16:31:44.888Z,37.50
2018-04-18T16:36:45.877Z,38.40
2018-04-18T16:41:46.888Z,39.46
2018-04-18T16:46:47.869Z,39.89
2018-04-18T16:51:48.904Z,40.96
2018-04-18T16:56:49.899Z,42.43
2018-04-18T17:01:50.940Z,43.12
2018-04-18T17:06:52.001Z,44.61
2018-04-18T17:11:52.912Z,45.08
2018-04-18T17:16:53.901Z,45.24
2018-04-18T17:21:54.953Z,45.92
2018-04-18T17:26:55.939Z,46.13
2018-04-18T17:31:56.907Z,47.01
2018-04-18T17:36:57.917Z,46.55
2018-04-18T17:41:58.904Z,47.04
2018-04-18T17:46:59.900Z,47.38
2018-04-18T17:52:00.893Z,48.49
2018-04-18T17:57:01.874Z,48.35
2018-04-18T18:02:02.894Z,48.73
2018-04-18T18:07:03.905Z,48.77
2018-04-18T18:12:04.942Z,49.61
2018-04-18T18:17:05.915Z,49.93
2018-04-18T18:22:06.917Z,50.46
2018-04-18T18:27:07.973Z,50.87
2018-04-18T18:32:09.035Z,51.29
2018-04-18T18:37:10.056Z,51.73
2018-04-18T18:42:11.060Z,52.47
2018-04-18T18:47:12.109Z,52.22
2018-04-18T18:52:13.142Z,53.10
2018-04-18T18:57:14.124Z,53.11
2018-04-18T19:02:15.165Z,53.59
2018-04-18T19:07:16.184Z,53.52
2018-04-18T19:12:17.156Z,53.84
2018-04-18T19:17:18.163Z,53.84
2018-04-18T19:22:19.195Z,53.94
2018-04-18T19:27:20.478Z,54.26
2018-04-18T19:32:21.454Z,54.38
2018-04-18T19:37:22.492Z,55.18
2018-04-18T19:42:23.499Z,57.27
2018-04-18T19:47:24.532Z,57.02
2018-04-18T19:52:25.573Z,56.49
2018-04-18T19:57:26.588Z,56.91
2018-04-18T20:02:27.632Z,57.09
2018-04-18T20:07:28.602Z,57.28
2018-04-18T20:12:29.633Z,56.88
2018-04-18T20:17:30.622Z,57.63
2018-04-18T20:22:31.701Z,58.11
2018-04-18T20:27:32.648Z,59.64
2018-04-18T20:32:33.623Z,59.11
2018-04-18T20:37:34.640Z,60.38
2018-04-18T20:42:35.679Z,60.30
2018-04-18T20:47:36.665Z,60.44
2018-04-18T20:52:37.661Z,61.01
2018-04-18T20:57:38.660Z,63.38
2018-04-18T21:02:39.693Z,61.82
2018-04-18T21:07:41.634Z,61.16
2018-04-18T21:12:42.644Z,61.53
2018-04-18T21:17:43.917Z,61.54
2018-04-18T21:22:44.931Z,61.96
2018-04-18T21:27:45.952Z,61.93
2018-04-18T21:32:46.984Z,61.43
2018-04-18T21:37:47.948Z,63.39
2018-04-18T21:42:48.954Z,62.54
2018-04-18T21:47:49.932Z,62.69
2018-04-18T21:52:50.927Z,63.51
2018-04-18T21:57:51.887Z,62.76
2018-04-18T22:02:52.904Z,62.88
2018-04-18T22:07:53.903Z,63.08
2018-04-18T22:12:54.888Z,64.05
2018-04-18T22:17:55.871Z,62.96
2018-04-18T22:22:56.830Z,63.18
2018-04-18T22:27:57.836Z,63.62
2018-04-18T22:32:58.793Z,63.60
2018-04-18T22:37:59.793Z,63.85
2018-04-18T22:43:00.760Z,65.08
2018-04-18T22:48:01.732Z,65.13
2018-04-18T22:53:02.716Z,65.07
2018-04-18T22:58:03.676Z,65.16
2018-04-18T23:03:04.651Z,66.32
2018-04-18T23:08:05.631Z,65.25
2018-04-18T23:13:06.606Z,65.38
2018-04-18T23:18:07.597Z,65.87
2018-04-18T23:23:08.564Z,65.65
2018-04-18T23:28:09.538Z,66.63
2018-04-18T23:33:10.499Z,65.41
2018-04-18T23:38:11.455Z,65.65
2018-04-18T23:43:12.417Z,67.57
2018-04-18T23:48:13.401Z,67.31
2018-04-18T23:53:14.353Z,67.42
2018-04-18T23:58:15.306Z,67.55
